sensor_id;sensor_type;location;lat;lon;timestamp;temperature;humidity
20610;DHT22;10463;52.378;9.688;2022-09-27T00:00:57;26.80;27.90
20610;DHT22;10463;52.378;9.688;2022-09-27T00:03:43;26.80;27.90
20610;DHT22;10463;52.378;9.688;2022-09-27T00:06:30;26.80;27.90
20610;DHT22;10463;52.378;9.688;2022-09-27T00:09:16;26.80;27.90
20610;DHT22;10463;52.378;9.688;2022-09-27T00:12:03;26.80;27.90
20610;DHT22;10463;52.378;9.688;2022-09-27T00:14:49;26.80;27.90
20610;DHT22;10463;52.378;9.688;2022-09-27T00:17:35;26.80;27.90
20610;DHT22;10463;52.378;9.688;2022-09-27T00:20:21;26.80;27.90
20610;DHT22;10463;52.378;9.688;2022-09-27T00:23:06;26.70;27.80
20610;DHT22;10463;52.378;9.688;2022-09-27T00:25:56;26.80;27.90
20610;DHT22;10463;52.378;9.688;2022-09-27T00:28:44;26.70;27.80
20610;DHT22;10463;52.378;9.688;2022-09-27T00:31:30;26.80;27.90
20610;DHT22;10463;52.378;9.688;2022-09-27T00:34:19;26.70;27.90
20610;DHT22;10463;52.378;9.688;2022-09-27T00:37:51;26.70;27.90
20610;DHT22;10463;52.378;9.688;2022-09-27T00:40:37;26.70;27.90
20610;DHT22;10463;52.378;9.688;2022-09-27T00:43:23;26.80;27.90
20610;DHT22;10463;52.378;9.688;2022-09-27T00:46:13;26.70;27.90
20610;DHT22;10463;52.378;9.688;2022-09-27T00:49:09;26.70;27.90
20610;DHT22;10463;52.378;9.688;2022-09-27T00:52:06;26.70;27.90
20610;DHT22;10463;52.378;9.688;2022-09-27T00:55:10;26.80;28.00
20610;DHT22;10463;52.378;9.688;2022-09-27T00:58:14;26.70;27.90
20610;DHT22;10463;52.378;9.688;2022-09-27T01:01:06;26.70;27.90
20610;DHT22;10463;52.378;9.688;2022-09-27T01:04:00;26.70;27.90
20610;DHT22;10463;52.378;9.688;2022-09-27T01:06:47;26.70;27.80
20610;DHT22;10463;52.378;9.688;2022-09-27T01:09:32;26.70;27.80
20610;DHT22;10463;52.378;9.688;2022-09-27T01:12:25;26.70;27.80
20610;DHT22;10463;52.378;9.688;2022-09-27T01:15:24;26.70;27.80
20610;DHT22;10463;52.378;9.688;2022-09-27T01:18:29;26.60;27.70
20610;DHT22;10463;52.378;9.688;2022-09-27T01:21:44;26.60;27.70
20610;DHT22;10463;52.378;9.688;2022-09-27T01:25:14;26.60;27.70
20610;DHT22;10463;52.378;9.688;2022-09-27T01:28:20;26.50;27.70
20610;DHT22;10463;52.378;9.688;2022-09-27T01:31:12;26.50;27.70
20610;DHT22;10463;52.378;9.688;2022-09-27T01:34:06;26.50;27.70
20610;DHT22;10463;52.378;9.688;2022-09-27T01:37:02;26.40;27.70
20610;DHT22;10463;52.378;9.688;2022-09-27T01:39:55;26.50;27.70
20610;DHT22;10463;52.378;9.688;2022-09-27T01:42:51;26.40;27.70
20610;DHT22;10463;52.378;9.688;2022-09-27T01:45:46;26.40;27.70
20610;DHT22;10463;52.378;9.688;2022-09-27T01:48:54;26.40;27.70
20610;DHT22;10463;52.378;9.688;2022-09-27T01:51:45;26.40;27.70
20610;DHT22;10463;52.378;9.688;2022-09-27T01:54:37;26.40;27.70
20610;DHT22;10463;52.378;9.688;2022-09-27T01:57:52;26.30;27.60
20610;DHT22;10463;52.378;9.688;2022-09-27T02:00:44;26.30;27.70
20610;DHT22;10463;52.378;9.688;2022-09-27T02:03:35;26.30;27.70
20610;DHT22;10463;52.378;9.688;2022-09-27T02:07:01;26.30;27.70
20610;DHT22;10463;52.378;9.688;2022-09-27T02:09:53;26.20;27.70
20610;DHT22;10463;52.378;9.688;2022-09-27T02:12:50;26.20;27.70
20610;DHT22;10463;52.378;9.688;2022-09-27T02:15:48;26.20;27.70
20610;DHT22;10463;52.378;9.688;2022-09-27T02:19:01;26.20;27.70
20610;DHT22;10463;52.378;9.688;2022-09-27T02:21:58;26.20;27.70
20610;DHT22;10463;52.378;9.688;2022-09-27T02:24:53;26.10;27.70
20610;DHT22;10463;52.378;9.688;2022-09-27T02:27:53;26.10;27.70
20610;DHT22;10463;52.378;9.688;2022-09-27T02:30:40;26.10;27.70
20610;DHT22;10463;52.378;9.688;2022-09-27T02:33:42;26.00;27.60
20610;DHT22;10463;52.378;9.688;2022-09-27T02:36:29;26.00;27.70
20610;DHT22;10463;52.378;9.688;2022-09-27T02:39:16;26.00;27.70
20610;DHT22;10463;52.378;9.688;2022-09-27T02:42:02;26.00;27.70
20610;DHT22;10463;52.378;9.688;2022-09-27T02:44:49;26.00;27.70
20610;DHT22;10463;52.378;9.688;2022-09-27T02:47:48;25.90;27.70
20610;DHT22;10463;52.378;9.688;2022-09-27T02:51:19;25.90;27.80
20610;DHT22;10463;52.378;9.688;2022-09-27T02:54:23;25.90;27.80
20610;DHT22;10463;52.378;9.688;2022-09-27T02:57:31;25.90;27.80
20610;DHT22;10463;52.378;9.688;2022-09-27T03:00:40;25.80;27.80
20610;DHT22;10463;52.378;9.688;2022-09-27T03:04:03;25.80;27.80
20610;DHT22;10463;52.378;9.688;2022-09-27T03:06:50;25.80;27.80
20610;DHT22;10463;52.378;9.688;2022-09-27T03:09:45;25.80;27.90
20610;DHT22;10463;52.378;9.688;2022-09-27T03:12:33;25.70;27.80
20610;DHT22;10463;52.378;9.688;2022-09-27T03:15:18;25.70;27.80
20610;DHT22;10463;52.378;9.688;2022-09-27T03:18:18;25.70;27.80
20610;DHT22;10463;52.378;9.688;2022-09-27T03:21:15;25.70;27.90
20610;DHT22;10463;52.378;9.688;2022-09-27T03:24:02;25.60;27.90
20610;DHT22;10463;52.378;9.688;2022-09-27T03:26:49;25.60;27.90
20610;DHT22;10463;52.378;9.688;2022-09-27T03:29:34;25.60;27.90
20610;DHT22;10463;52.378;9.688;2022-09-27T03:32:24;25.60;27.90
20610;DHT22;10463;52.378;9.688;2022-09-27T03:35:28;25.50;27.90
20610;DHT22;10463;52.378;9.688;2022-09-27T03:38:13;25.50;27.90
20610;DHT22;10463;52.378;9.688;2022-09-27T03:40:58;25.50;27.90
20610;DHT22;10463;52.378;9.688;2022-09-27T03:43:45;25.50;28.00
20610;DHT22;10463;52.378;9.688;2022-09-27T03:46:30;25.50;28.00
20610;DHT22;10463;52.378;9.688;2022-09-27T03:49:15;25.50;28.00
20610;DHT22;10463;52.378;9.688;2022-09-27T03:52:01;25.50;28.10
20610;DHT22;10463;52.378;9.688;2022-09-27T03:54:47;25.50;28.10
20610;DHT22;10463;52.378;9.688;2022-09-27T03:57:32;25.50;28.10
20610;DHT22;10463;52.378;9.688;2022-09-27T04:00:19;25.40;28.10
20610;DHT22;10463;52.378;9.688;2022-09-27T04:03:04;25.40;28.10
20610;DHT22;10463;52.378;9.688;2022-09-27T04:06:08;25.40;28.10
20610;DHT22;10463;52.378;9.688;2022-09-27T04:08:57;25.40;28.20
20610;DHT22;10463;52.378;9.688;2022-09-27T04:11:51;25.40;28.20
20610;DHT22;10463;52.378;9.688;2022-09-27T04:14:37;25.40;28.20
20610;DHT22;10463;52.378;9.688;2022-09-27T04:17:52;25.40;28.20
20610;DHT22;10463;52.378;9.688;2022-09-27T04:20:57;25.40;28.20
20610;DHT22;10463;52.378;9.688;2022-09-27T04:23:42;25.40;28.20
20610;DHT22;10463;52.378;9.688;2022-09-27T04:26:31;25.40;28.20
20610;DHT22;10463;52.378;9.688;2022-09-27T04:29:21;25.40;28.30
20610;DHT22;10463;52.378;9.688;2022-09-27T04:32:09;25.40;28.30
20610;DHT22;10463;52.378;9.688;2022-09-27T04:35:16;25.40;28.30
20610;DHT22;10463;52.378;9.688;2022-09-27T04:38:20;25.30;28.20
20610;DHT22;10463;52.378;9.688;2022-09-27T04:41:08;25.30;28.30
20610;DHT22;10463;52.378;9.688;2022-09-27T04:43:57;25.30;28.30
20610;DHT22;10463;52.378;9.688;2022-09-27T04:46:45;25.30;28.30
20610;DHT22;10463;52.378;9.688;2022-09-27T04:49:30;25.30;28.30
20610;DHT22;10463;52.378;9.688;2022-09-27T04:52:17;25.30;28.30
20610;DHT22;10463;52.378;9.688;2022-09-27T04:55:03;25.30;28.30
20610;DHT22;10463;52.378;9.688;2022-09-27T04:57:50;25.20;28.30
20610;DHT22;10463;52.378;9.688;2022-09-27T05:00:35;25.20;28.30
20610;DHT22;10463;52.378;9.688;2022-09-27T05:03:39;25.20;28.30
20610;DHT22;10463;52.378;9.688;2022-09-27T05:06:29;25.20;28.30
20610;DHT22;10463;52.378;9.688;2022-09-27T05:09:20;25.20;28.30
20610;DHT22;10463;52.378;9.688;2022-09-27T05:12:08;25.20;28.40
20610;DHT22;10463;52.378;9.688;2022-09-27T05:14:56;25.10;28.30
20610;DHT22;10463;52.378;9.688;2022-09-27T05:18:01;25.10;28.30
20610;DHT22;10463;52.378;9.688;2022-09-27T05:21:09;25.10;28.30
20610;DHT22;10463;52.378;9.688;2022-09-27T05:24:00;25.10;28.30
20610;DHT22;10463;52.378;9.688;2022-09-27T05:26:47;25.10;28.30
20610;DHT22;10463;52.378;9.688;2022-09-27T05:29:32;25.10;28.40
20610;DHT22;10463;52.378;9.688;2022-09-27T05:32:30;25.10;28.30
20610;DHT22;10463;52.378;9.688;2022-09-27T05:35:38;25.10;28.40
20610;DHT22;10463;52.378;9.688;2022-09-27T05:38:26;25.10;28.40
20610;DHT22;10463;52.378;9.688;2022-09-27T05:41:14;25.10;28.40
20610;DHT22;10463;52.378;9.688;2022-09-27T05:44:01;25.10;28.40
20610;DHT22;10463;52.378;9.688;2022-09-27T05:46:46;25.00;28.40
20610;DHT22;10463;52.378;9.688;2022-09-27T05:49:32;25.00;28.40
20610;DHT22;10463;52.378;9.688;2022-09-27T05:52:18;25.00;28.40
20610;DHT22;10463;52.378;9.688;2022-09-27T05:55:04;25.00;28.40
20610;DHT22;10463;52.378;9.688;2022-09-27T05:57:56;25.00;28.50
20610;DHT22;10463;52.378;9.688;2022-09-27T06:00:46;25.00;28.50
20610;DHT22;10463;52.378;9.688;2022-09-27T06:03:50;25.00;28.50
20610;DHT22;10463;52.378;9.688;2022-09-27T06:06:50;24.90;28.50
20610;DHT22;10463;52.378;9.688;2022-09-27T06:09:35;24.90;28.50
20610;DHT22;10463;52.378;9.688;2022-09-27T06:12:21;24.90;28.60
20610;DHT22;10463;52.378;9.688;2022-09-27T06:15:07;24.90;28.60
20610;DHT22;10463;52.378;9.688;2022-09-27T06:18:03;24.90;28.60
20610;DHT22;10463;52.378;9.688;2022-09-27T06:20:49;24.80;28.60
20610;DHT22;10463;52.378;9.688;2022-09-27T06:23:36;24.80;28.60
20610;DHT22;10463;52.378;9.688;2022-09-27T06:26:31;24.90;28.70
20610;DHT22;10463;52.378;9.688;2022-09-27T06:29:32;24.80;28.70
20610;DHT22;10463;52.378;9.688;2022-09-27T06:32:20;24.90;28.70
20610;DHT22;10463;52.378;9.688;2022-09-27T06:35:15;24.80;28.70
20610;DHT22;10463;52.378;9.688;2022-09-27T06:38:03;24.90;28.70
20610;DHT22;10463;52.378;9.688;2022-09-27T06:40:50;24.80;28.70
20610;DHT22;10463;52.378;9.688;2022-09-27T06:43:49;24.80;28.80
20610;DHT22;10463;52.378;9.688;2022-09-27T06:46:53;24.80;28.80
20610;DHT22;10463;52.378;9.688;2022-09-27T06:49:57;24.80;28.80
20610;DHT22;10463;52.378;9.688;2022-09-27T06:52:49;24.80;28.70
20610;DHT22;10463;52.378;9.688;2022-09-27T06:55:35;24.80;28.70
20610;DHT22;10463;52.378;9.688;2022-09-27T06:58:20;24.80;28.70
20610;DHT22;10463;52.378;9.688;2022-09-27T07:01:44;24.80;29.30
20610;DHT22;10463;52.378;9.688;2022-09-27T07:04:48;24.80;28.70
20610;DHT22;10463;52.378;9.688;2022-09-27T07:07:59;24.80;28.80
20610;DHT22;10463;52.378;9.688;2022-09-27T07:10:45;24.70;28.70
20610;DHT22;10463;52.378;9.688;2022-09-27T07:13:31;24.80;28.80
20610;DHT22;10463;52.378;9.688;2022-09-27T07:16:17;24.80;28.80
20610;DHT22;10463;52.378;9.688;2022-09-27T07:19:03;24.80;28.80
20610;DHT22;10463;52.378;9.688;2022-09-27T07:21:51;24.70;28.80
20610;DHT22;10463;52.378;9.688;2022-09-27T07:24:38;24.80;28.90
20610;DHT22;10463;52.378;9.688;2022-09-27T07:27:24;24.70;28.80
20610;DHT22;10463;52.378;9.688;2022-09-27T07:30:12;24.70;28.90
20610;DHT22;10463;52.378;9.688;2022-09-27T07:32:58;24.70;28.90
20610;DHT22;10463;52.378;9.688;2022-09-27T07:35:43;24.70;28.90
20610;DHT22;10463;52.378;9.688;2022-09-27T07:38:28;24.70;28.90
20610;DHT22;10463;52.378;9.688;2022-09-27T07:41:15;24.70;28.90
20610;DHT22;10463;52.378;9.688;2022-09-27T07:44:01;24.70;28.90
20610;DHT22;10463;52.378;9.688;2022-09-27T07:46:49;24.70;28.90
20610;DHT22;10463;52.378;9.688;2022-09-27T07:49:40;24.70;28.90
20610;DHT22;10463;52.378;9.688;2022-09-27T07:52:41;24.70;28.90
20610;DHT22;10463;52.378;9.688;2022-09-27T07:55:50;24.70;28.90
20610;DHT22;10463;52.378;9.688;2022-09-27T07:58:40;24.70;28.90
20610;DHT22;10463;52.378;9.688;2022-09-27T08:01:26;24.70;28.90
20610;DHT22;10463;52.378;9.688;2022-09-27T08:04:12;24.70;28.90
20610;DHT22;10463;52.378;9.688;2022-09-27T08:06:57;24.80;29.00
20610;DHT22;10463;52.378;9.688;2022-09-27T08:09:43;24.80;29.00
20610;DHT22;10463;52.378;9.688;2022-09-27T08:12:28;24.80;29.00
20610;DHT22;10463;52.378;9.688;2022-09-27T08:15:15;24.90;29.00
20610;DHT22;10463;52.378;9.688;2022-09-27T08:18:00;24.90;29.00
20610;DHT22;10463;52.378;9.688;2022-09-27T08:21:07;24.90;29.00
20610;DHT22;10463;52.378;9.688;2022-09-27T08:24:07;24.90;29.00
20610;DHT22;10463;52.378;9.688;2022-09-27T08:27:11;24.90;29.00
20610;DHT22;10463;52.378;9.688;2022-09-27T08:30:10;25.00;29.10
20610;DHT22;10463;52.378;9.688;2022-09-27T08:32:57;25.00;29.00
20610;DHT22;10463;52.378;9.688;2022-09-27T08:35:42;25.00;29.00
20610;DHT22;10463;52.378;9.688;2022-09-27T08:38:27;25.00;29.00
20610;DHT22;10463;52.378;9.688;2022-09-27T08:41:23;25.10;29.10
20610;DHT22;10463;52.378;9.688;2022-09-27T08:44:22;25.10;29.00
20610;DHT22;10463;52.378;9.688;2022-09-27T08:47:24;25.10;29.00
20610;DHT22;10463;52.378;9.688;2022-09-27T08:50:24;25.10;29.00
20610;DHT22;10463;52.378;9.688;2022-09-27T08:53:21;25.10;29.10
20610;DHT22;10463;52.378;9.688;2022-09-27T08:56:08;25.10;29.00
20610;DHT22;10463;52.378;9.688;2022-09-27T08:59:07;25.20;29.00
20610;DHT22;10463;52.378;9.688;2022-09-27T09:01:56;25.20;29.00
20610;DHT22;10463;52.378;9.688;2022-09-27T09:05:07;25.20;29.00
20610;DHT22;10463;52.378;9.688;2022-09-27T09:08:27;25.20;29.00
20610;DHT22;10463;52.378;9.688;2022-09-27T09:11:38;25.20;29.00
20610;DHT22;10463;52.378;9.688;2022-09-27T09:15:01;25.30;29.00
20610;DHT22;10463;52.378;9.688;2022-09-27T09:18:15;25.30;29.00
20610;DHT22;10463;52.378;9.688;2022-09-27T09:21:32;25.30;29.00
20610;DHT22;10463;52.378;9.688;2022-09-27T09:24:32;25.30;29.00
20610;DHT22;10463;52.378;9.688;2022-09-27T09:27:27;25.40;29.10
20610;DHT22;10463;52.378;9.688;2022-09-27T09:30:20;25.40;29.10
20610;DHT22;10463;52.378;9.688;2022-09-27T09:33:21;25.40;29.00
20610;DHT22;10463;52.378;9.688;2022-09-27T09:36:14;25.40;29.00
20610;DHT22;10463;52.378;9.688;2022-09-27T09:39:12;25.40;29.00
20610;DHT22;10463;52.378;9.688;2022-09-27T09:42:12;25.40;29.10
20610;DHT22;10463;52.378;9.688;2022-09-27T09:45:03;25.50;29.10
20610;DHT22;10463;52.378;9.688;2022-09-27T09:47:56;25.50;29.10
20610;DHT22;10463;52.378;9.688;2022-09-27T09:50:48;25.50;29.10
20610;DHT22;10463;52.378;9.688;2022-09-27T09:53:40;25.50;29.10
20610;DHT22;10463;52.378;9.688;2022-09-27T09:56:30;25.60;29.10
20610;DHT22;10463;52.378;9.688;2022-09-27T09:59:23;25.60;29.10
20610;DHT22;10463;52.378;9.688;2022-09-27T10:02:27;25.70;29.10
20610;DHT22;10463;52.378;9.688;2022-09-27T10:05:24;25.60;29.00
20610;DHT22;10463;52.378;9.688;2022-09-27T10:08:20;25.70;29.00
20610;DHT22;10463;52.378;9.688;2022-09-27T10:11:20;25.70;29.00
20610;DHT22;10463;52.378;9.688;2022-09-27T10:14:18;25.70;29.00
20610;DHT22;10463;52.378;9.688;2022-09-27T10:17:10;25.80;29.00
20610;DHT22;10463;52.378;9.688;2022-09-27T10:20:01;25.80;28.90
20610;DHT22;10463;52.378;9.688;2022-09-27T10:22:52;25.80;28.90
20610;DHT22;10463;52.378;9.688;2022-09-27T10:25:59;25.80;28.90
20610;DHT22;10463;52.378;9.688;2022-09-27T10:28:56;25.80;28.90
20610;DHT22;10463;52.378;9.688;2022-09-27T10:31:59;25.80;28.80
20610;DHT22;10463;52.378;9.688;2022-09-27T10:35:31;25.80;28.80
20610;DHT22;10463;52.378;9.688;2022-09-27T10:38:26;25.80;28.80
20610;DHT22;10463;52.378;9.688;2022-09-27T10:41:25;25.90;28.80
20610;DHT22;10463;52.378;9.688;2022-09-27T10:44:26;25.90;28.70
20610;DHT22;10463;52.378;9.688;2022-09-27T10:47:24;25.90;28.70
20610;DHT22;10463;52.378;9.688;2022-09-27T10:50:19;25.90;28.70
20610;DHT22;10463;52.378;9.688;2022-09-27T10:53:20;25.90;28.60
20610;DHT22;10463;52.378;9.688;2022-09-27T10:56:22;25.90;28.60
20610;DHT22;10463;52.378;9.688;2022-09-27T10:59:17;26.00;28.60
20610;DHT22;10463;52.378;9.688;2022-09-27T11:02:04;26.00;28.60
20610;DHT22;10463;52.378;9.688;2022-09-27T11:05:10;26.00;28.60
20610;DHT22;10463;52.378;9.688;2022-09-27T11:07:59;26.00;28.60
20610;DHT22;10463;52.378;9.688;2022-09-27T11:11:12;26.00;28.60
20610;DHT22;10463;52.378;9.688;2022-09-27T11:14:03;26.00;28.60
20610;DHT22;10463;52.378;9.688;2022-09-27T11:17:11;26.10;28.60
20610;DHT22;10463;52.378;9.688;2022-09-27T11:20:30;26.10;28.60
20610;DHT22;10463;52.378;9.688;2022-09-27T11:23:36;26.10;28.50
20610;DHT22;10463;52.378;9.688;2022-09-27T11:26:43;26.10;28.50
20610;DHT22;10463;52.378;9.688;2022-09-27T11:29:43;26.10;28.50
20610;DHT22;10463;52.378;9.688;2022-09-27T11:33:30;26.20;28.50
20610;DHT22;10463;52.378;9.688;2022-09-27T11:36:33;26.10;28.40
20610;DHT22;10463;52.378;9.688;2022-09-27T11:39:27;26.10;28.40
20610;DHT22;10463;52.378;9.688;2022-09-27T11:45:53;26.20;28.50
20610;DHT22;10463;52.378;9.688;2022-09-27T11:48:56;26.20;28.50
20610;DHT22;10463;52.378;9.688;2022-09-27T11:52:04;26.20;28.50
20610;DHT22;10463;52.378;9.688;2022-09-27T11:55:10;26.20;28.50
20610;DHT22;10463;52.378;9.688;2022-09-27T11:58:03;26.20;28.50
20610;DHT22;10463;52.378;9.688;2022-09-27T12:01:09;26.20;29.00
20610;DHT22;10463;52.378;9.688;2022-09-27T12:04:32;26.20;28.50
20610;DHT22;10463;52.378;9.688;2022-09-27T12:07:32;26.20;28.40
20610;DHT22;10463;52.378;9.688;2022-09-27T12:10:20;26.30;28.50
20610;DHT22;10463;52.378;9.688;2022-09-27T12:13:25;26.20;28.40
20610;DHT22;10463;52.378;9.688;2022-09-27T12:16:12;26.30;28.50
20610;DHT22;10463;52.378;9.688;2022-09-27T12:19:00;26.30;28.50
20610;DHT22;10463;52.378;9.688;2022-09-27T12:22:06;26.30;28.40
20610;DHT22;10463;52.378;9.688;2022-09-27T12:25:01;26.30;28.50
20610;DHT22;10463;52.378;9.688;2022-09-27T12:28:02;26.30;28.50
20610;DHT22;10463;52.378;9.688;2022-09-27T12:30:56;26.30;28.40
20610;DHT22;10463;52.378;9.688;2022-09-27T12:33:48;26.30;28.40
20610;DHT22;10463;52.378;9.688;2022-09-27T12:36:38;26.30;28.40
20610;DHT22;10463;52.378;9.688;2022-09-27T12:39:36;26.30;28.40
20610;DHT22;10463;52.378;9.688;2022-09-27T12:42:40;26.40;28.40
20610;DHT22;10463;52.378;9.688;2022-09-27T12:45:47;26.30;28.40
20610;DHT22;10463;52.378;9.688;2022-09-27T12:48:43;26.30;28.40
20610;DHT22;10463;52.378;9.688;2022-09-27T12:51:36;26.40;28.40
20610;DHT22;10463;52.378;9.688;2022-09-27T12:54:59;26.40;28.40
20610;DHT22;10463;52.378;9.688;2022-09-27T12:58:22;26.40;28.30
20610;DHT22;10463;52.378;9.688;2022-09-27T13:01:33;26.40;28.30
20610;DHT22;10463;52.378;9.688;2022-09-27T13:08:03;26.40;28.30
20610;DHT22;10463;52.378;9.688;2022-09-27T13:10:57;26.40;28.30
20610;DHT22;10463;52.378;9.688;2022-09-27T13:13:58;26.40;28.30
20610;DHT22;10463;52.378;9.688;2022-09-27T13:16:45;26.40;28.30
20610;DHT22;10463;52.378;9.688;2022-09-27T13:19:41;26.40;28.30
20610;DHT22;10463;52.378;9.688;2022-09-27T13:22:39;26.40;28.30
20610;DHT22;10463;52.378;9.688;2022-09-27T13:25:49;26.50;28.40
20610;DHT22;10463;52.378;9.688;2022-09-27T13:29:10;26.50;28.30
20610;DHT22;10463;52.378;9.688;2022-09-27T13:32:18;26.50;28.30
20610;DHT22;10463;52.378;9.688;2022-09-27T13:35:32;26.50;28.30
20610;DHT22;10463;52.378;9.688;2022-09-27T13:38:28;26.50;28.30
20610;DHT22;10463;52.378;9.688;2022-09-27T13:41:16;26.50;28.30
20610;DHT22;10463;52.378;9.688;2022-09-27T13:44:27;26.50;28.30
20610;DHT22;10463;52.378;9.688;2022-09-27T13:52:54;26.50;28.30
20610;DHT22;10463;52.378;9.688;2022-09-27T13:55:45;26.50;28.30
20610;DHT22;10463;52.378;9.688;2022-09-27T13:58:57;26.50;28.30
20610;DHT22;10463;52.378;9.688;2022-09-27T14:02:00;26.50;28.40
20610;DHT22;10463;52.378;9.688;2022-09-27T14:04:54;26.60;28.50
20610;DHT22;10463;52.378;9.688;2022-09-27T14:07:43;26.60;28.40
20610;DHT22;10463;52.378;9.688;2022-09-27T14:10:32;26.60;28.40
20610;DHT22;10463;52.378;9.688;2022-09-27T14:13:21;26.60;28.30
20610;DHT22;10463;52.378;9.688;2022-09-27T14:16:17;26.60;28.30
20610;DHT22;10463;52.378;9.688;2022-09-27T14:19:13;26.60;28.20
20610;DHT22;10463;52.378;9.688;2022-09-27T14:22:01;26.70;28.30
20610;DHT22;10463;52.378;9.688;2022-09-27T14:24:51;26.70;28.20
20610;DHT22;10463;52.378;9.688;2022-09-27T14:27:44;26.70;28.10
20610;DHT22;10463;52.378;9.688;2022-09-27T14:30:36;26.70;28.10
20610;DHT22;10463;52.378;9.688;2022-09-27T14:33:40;26.70;28.00
20610;DHT22;10463;52.378;9.688;2022-09-27T14:36:33;26.70;28.00
20610;DHT22;10463;52.378;9.688;2022-09-27T14:39:39;26.70;28.00
20610;DHT22;10463;52.378;9.688;2022-09-27T14:42:40;26.70;28.00
20610;DHT22;10463;52.378;9.688;2022-09-27T14:45:29;26.70;28.00
20610;DHT22;10463;52.378;9.688;2022-09-27T14:48:22;26.70;28.00
20610;DHT22;10463;52.378;9.688;2022-09-27T14:51:19;26.70;28.00
20610;DHT22;10463;52.378;9.688;2022-09-27T14:54:19;26.70;28.00
20610;DHT22;10463;52.378;9.688;2022-09-27T14:57:06;26.70;28.00
20610;DHT22;10463;52.378;9.688;2022-09-27T14:59:51;26.70;28.00
20610;DHT22;10463;52.378;9.688;2022-09-27T15:02:40;26.70;27.90
20610;DHT22;10463;52.378;9.688;2022-09-27T15:05:29;26.60;27.90
20610;DHT22;10463;52.378;9.688;2022-09-27T15:08:14;26.60;27.90
20610;DHT22;10463;52.378;9.688;2022-09-27T15:11:03;26.60;27.90
20610;DHT22;10463;52.378;9.688;2022-09-27T15:13:51;26.60;28.00
20610;DHT22;10463;52.378;9.688;2022-09-27T15:16:38;26.60;28.00
20610;DHT22;10463;52.378;9.688;2022-09-27T15:19:25;26.70;28.00
20610;DHT22;10463;52.378;9.688;2022-09-27T15:22:35;26.60;28.00
20610;DHT22;10463;52.378;9.688;2022-09-27T15:25:25;26.60;28.00
20610;DHT22;10463;52.378;9.688;2022-09-27T15:28:19;26.60;28.00
20610;DHT22;10463;52.378;9.688;2022-09-27T15:31:05;26.60;28.00
20610;DHT22;10463;52.378;9.688;2022-09-27T15:33:54;26.60;28.00
20610;DHT22;10463;52.378;9.688;2022-09-27T15:36:52;26.60;28.00
20610;DHT22;10463;52.378;9.688;2022-09-27T15:39:40;26.60;28.00
20610;DHT22;10463;52.378;9.688;2022-09-27T15:42:25;26.60;28.10
20610;DHT22;10463;52.378;9.688;2022-09-27T15:45:27;26.60;28.10
20610;DHT22;10463;52.378;9.688;2022-09-27T15:48:15;26.60;28.10
20610;DHT22;10463;52.378;9.688;2022-09-27T15:51:01;26.60;28.10
20610;DHT22;10463;52.378;9.688;2022-09-27T15:53:46;26.60;28.10
20610;DHT22;10463;52.378;9.688;2022-09-27T15:56:32;26.60;28.10
20610;DHT22;10463;52.378;9.688;2022-09-27T15:59:21;26.60;28.10
20610;DHT22;10463;52.378;9.688;2022-09-27T16:02:15;26.60;28.20
20610;DHT22;10463;52.378;9.688;2022-09-27T16:05:02;26.60;28.20
20610;DHT22;10463;52.378;9.688;2022-09-27T16:07:47;26.60;28.20
20610;DHT22;10463;52.378;9.688;2022-09-27T16:10:38;26.60;28.20
20610;DHT22;10463;52.378;9.688;2022-09-27T16:13:24;26.60;28.20
20610;DHT22;10463;52.378;9.688;2022-09-27T16:16:14;26.60;28.20
20610;DHT22;10463;52.378;9.688;2022-09-27T16:19:02;26.60;28.20
20610;DHT22;10463;52.378;9.688;2022-09-27T16:21:47;26.60;28.30
20610;DHT22;10463;52.378;9.688;2022-09-27T16:24:33;26.70;28.30
20610;DHT22;10463;52.378;9.688;2022-09-27T16:27:22;26.60;28.20
20610;DHT22;10463;52.378;9.688;2022-09-27T16:30:09;26.60;28.20
20610;DHT22;10463;52.378;9.688;2022-09-27T16:32:55;26.70;28.30
20610;DHT22;10463;52.378;9.688;2022-09-27T16:35:41;26.60;28.20
20610;DHT22;10463;52.378;9.688;2022-09-27T16:38:28;26.60;28.20
20610;DHT22;10463;52.378;9.688;2022-09-27T16:41:14;26.60;28.20
20610;DHT22;10463;52.378;9.688;2022-09-27T16:44:04;26.60;28.20
20610;DHT22;10463;52.378;9.688;2022-09-27T16:46:49;26.60;28.20
20610;DHT22;10463;52.378;9.688;2022-09-27T16:49:35;26.60;28.20
20610;DHT22;10463;52.378;9.688;2022-09-27T16:52:41;26.60;28.20
20610;DHT22;10463;52.378;9.688;2022-09-27T16:55:27;26.60;28.30
20610;DHT22;10463;52.378;9.688;2022-09-27T16:58:13;26.70;28.30
20610;DHT22;10463;52.378;9.688;2022-09-27T17:01:01;26.60;28.30
20610;DHT22;10463;52.378;9.688;2022-09-27T17:03:48;26.70;28.30
20610;DHT22;10463;52.378;9.688;2022-09-27T17:06:33;26.70;28.40
20610;DHT22;10463;52.378;9.688;2022-09-27T17:09:20;26.70;28.40
20610;DHT22;10463;52.378;9.688;2022-09-27T17:12:05;26.60;28.30
20610;DHT22;10463;52.378;9.688;2022-09-27T17:14:50;26.60;28.30
20610;DHT22;10463;52.378;9.688;2022-09-27T17:17:36;26.60;28.30
20610;DHT22;10463;52.378;9.688;2022-09-27T17:20:21;26.60;28.30
20610;DHT22;10463;52.378;9.688;2022-09-27T17:23:07;26.60;28.30
20610;DHT22;10463;52.378;9.688;2022-09-27T17:25:54;26.60;28.40
20610;DHT22;10463;52.378;9.688;2022-09-27T17:28:40;26.60;28.40
20610;DHT22;10463;52.378;9.688;2022-09-27T17:31:28;26.60;28.40
20610;DHT22;10463;52.378;9.688;2022-09-27T17:34:15;26.60;28.40
20610;DHT22;10463;52.378;9.688;2022-09-27T17:37:01;26.60;28.40
20610;DHT22;10463;52.378;9.688;2022-09-27T17:39:46;26.60;28.40
20610;DHT22;10463;52.378;9.688;2022-09-27T17:42:32;26.60;28.40
20610;DHT22;10463;52.378;9.688;2022-09-27T17:45:18;26.70;28.40
20610;DHT22;10463;52.378;9.688;2022-09-27T17:48:05;26.60;28.40
20610;DHT22;10463;52.378;9.688;2022-09-27T17:51:11;26.60;28.40
20610;DHT22;10463;52.378;9.688;2022-09-27T17:53:58;26.60;28.40
20610;DHT22;10463;52.378;9.688;2022-09-27T17:56:43;26.60;28.30
20610;DHT22;10463;52.378;9.688;2022-09-27T17:59:32;26.60;28.30
20610;DHT22;10463;52.378;9.688;2022-09-27T18:02:17;26.60;28.30
20610;DHT22;10463;52.378;9.688;2022-09-27T18:05:02;26.60;28.30
20610;DHT22;10463;52.378;9.688;2022-09-27T18:07:48;26.60;28.30
20610;DHT22;10463;52.378;9.688;2022-09-27T18:10:36;26.60;28.30
20610;DHT22;10463;52.378;9.688;2022-09-27T18:13:21;26.60;28.30
20610;DHT22;10463;52.378;9.688;2022-09-27T18:16:09;26.60;28.30
20610;DHT22;10463;52.378;9.688;2022-09-27T18:18:56;26.60;28.30
20610;DHT22;10463;52.378;9.688;2022-09-27T18:21:42;26.60;28.30
20610;DHT22;10463;52.378;9.688;2022-09-27T18:24:27;26.60;28.30
20610;DHT22;10463;52.378;9.688;2022-09-27T18:27:12;26.60;28.20
20610;DHT22;10463;52.378;9.688;2022-09-27T18:30:01;26.60;28.30
20610;DHT22;10463;52.378;9.688;2022-09-27T18:32:48;26.60;28.20